Time;durP1;ratioP1;P1;durP2;ratioP2;P2;SDS_P1;SDS_P2;PMS_P1;PMS_P2;Temp;Humidity;BMP_temperature;BMP_pressure;BME280_temperature;BME280_humidity;BME280_pressure;Samples;Min_cycle;Max_cycle;Signal;HPM_P1;HPM_P2
2024/04/02 00:04:22;;;;;;;5.97;4.90;;;9.00;99.90;;;;;;12450112;28;20062;-81
2024/04/02 00:10:23;;;;;;;6.07;4.32;;;9.00;99.90;;;;;;12464510;28;20049;-80
2024/04/02 00:16:24;;;;;;;6.80;4.80;;;8.90;99.90;;;;;;12456394;28;20081;-82
2024/04/02 00:22:25;;;;;;;7.13;4.65;;;9.10;99.90;;;;;;12454143;28;20080;-81
2024/04/02 00:28:26;;;;;;;5.70;4.80;;;9.10;99.90;;;;;;12461244;28;20050;-80
2024/04/02 00:34:27;;;;;;;5.93;4.45;;;9.10;99.90;;;;;;12445748;28;20057;-86
2024/04/02 00:40:28;;;;;;;6.85;4.28;;;9.00;99.90;;;;;;12452786;28;20439;-83
2024/04/02 00:46:29;;;;;;;7.15;4.32;;;8.90;99.90;;;;;;12433814;28;20066;-84
2024/04/02 00:52:30;;;;;;;8.20;4.85;;;8.80;99.90;;;;;;12433855;28;20112;-86
2024/04/02 00:58:31;;;;;;;7.68;4.43;;;8.70;99.90;;;;;;12426698;28;20065;-86
2024/04/02 01:04:33;;;;;;;6.55;4.00;;;8.70;99.90;;;;;;12435120;28;20025;-84
2024/04/02 01:10:34;;;;;;;5.82;4.32;;;8.60;99.90;;;;;;12498303;28;20505;-83
2024/04/02 01:16:42;;;;;;;7.70;4.50;;;8.60;99.90;;;;;;12468204;28;20042;-87
2024/04/02 01:22:43;;;;;;;6.65;4.28;;;8.60;99.90;;;;;;12436832;28;20058;-86
2024/04/02 01:28:44;;;;;;;5.28;4.22;;;8.60;99.90;;;;;;12435690;28;20502;-86
2024/04/02 01:34:45;;;;;;;9.15;4.60;;;8.60;99.90;;;;;;12430556;28;20047;-84
2024/04/02 01:40:45;;;;;;;11.07;6.15;;;8.60;99.90;;;;;;12438364;28;20073;-84
2024/04/02 01:46:46;;;;;;;6.70;4.43;;;8.50;99.90;;;;;;12436050;28;20057;-82
2024/04/02 01:52:47;;;;;;;7.40;3.92;;;8.50;99.90;;;;;;12464927;28;20046;-82
2024/04/02 01:58:48;;;;;;;6.10;3.97;;;8.40;99.90;;;;;;12469445;28;20075;-80
2024/04/02 02:04:49;;;;;;;8.48;3.75;;;8.40;99.90;;;;;;12435367;28;20050;-83
2024/04/02 02:10:55;;;;;;;4.82;3.30;;;8.40;99.90;;;;;;12453837;28;20797;-82
2024/04/02 02:16:55;;;;;;;4.32;3.10;;;8.40;99.90;;;;;;12440396;28;20050;-81
2024/04/02 02:22:56;;;;;;;5.15;3.38;;;8.50;99.90;;;;;;12441164;28;20053;-82
2024/04/02 02:28:57;;;;;;;6.30;3.85;;;8.50;99.90;;;;;;12443633;28;20407;-83
2024/04/02 02:34:58;;;;;;;5.35;3.35;;;8.60;99.90;;;;;;12442584;28;20441;-82
2024/04/02 02:41:00;;;;;;;7.60;3.80;;;8.60;99.90;;;;;;12439794;28;20061;-82
2024/04/02 02:47:02;;;;;;;6.97;3.80;;;8.60;99.90;;;;;;12441507;28;20065;-84
2024/04/02 02:53:02;;;;;;;6.32;3.30;;;8.60;99.90;;;;;;12414030;28;20050;-78
2024/04/02 02:59:03;;;;;;;4.13;3.38;;;8.70;99.90;;;;;;12461030;28;20425;-81
2024/04/02 03:05:05;;;;;;;6.82;3.53;;;8.70;99.90;;;;;;12470651;28;20081;-84
2024/04/02 03:11:07;;;;;;;6.40;3.17;;;8.60;99.90;;;;;;12463933;28;20521;-80
2024/04/02 03:17:08;;;;;;;5.63;3.40;;;8.60;99.90;;;;;;12463309;28;20068;-80
2024/04/02 03:23:10;;;;;;;4.68;2.92;;;8.60;99.90;;;;;;12458334;28;20134;-82
2024/04/02 03:29:11;;;;;;;4.78;3.45;;;8.60;99.90;;;;;;12468854;28;20061;-82
2024/04/02 03:35:12;;;;;;;4.15;3.03;;;8.60;99.90;;;;;;12463897;28;20025;-83
2024/04/02 03:41:14;;;;;;;5.63;2.90;;;8.60;99.90;;;;;;12458258;28;20041;-84
2024/04/02 03:47:15;;;;;;;5.93;2.78;;;8.50;99.90;;;;;;12473790;28;20049;-82
2024/04/02 03:53:16;;;;;;;7.30;3.40;;;8.50;99.90;;;;;;12444076;28;20049;-80
2024/04/02 03:59:17;;;;;;;4.47;2.70;;;8.40;99.90;;;;;;12471631;28;20054;-84
2024/04/02 04:05:18;;;;;;;5.25;3.20;;;8.40;99.90;;;;;;12468508;28;20052;-81
2024/04/02 04:11:19;;;;;;;7.13;2.75;;;8.30;99.90;;;;;;12456309;28;20046;-82
2024/04/02 04:17:20;;;;;;;4.82;3.22;;;8.20;99.90;;;;;;12477596;28;20054;-79
2024/04/02 04:23:21;;;;;;;6.28;2.92;;;8.20;99.90;;;;;;12465204;28;20050;-79
2024/04/02 04:29:22;;;;;;;3.90;3.08;;;8.30;99.90;;;;;;12475551;28;20059;-79
2024/04/02 04:35:23;;;;;;;5.47;3.60;;;8.30;99.90;;;;;;12462626;28;20064;-78
2024/04/02 04:41:23;;;;;;;5.50;3.13;;;8.30;99.90;;;;;;12465667;28;20049;-80
2024/04/02 04:47:24;;;;;;;8.07;3.30;;;8.30;99.90;;;;;;12474440;28;20054;-80
2024/04/02 04:53:27;;;;;;;6.72;3.03;;;8.30;99.90;;;;;;12471000;28;20070;-81
2024/04/02 04:59:28;;;;;;;4.55;3.15;;;8.30;99.90;;;;;;12450636;28;20050;-81
2024/04/02 05:05:29;;;;;;;7.88;3.53;;;8.40;99.90;;;;;;12462170;28;20130;-78
2024/04/02 05:11:30;;;;;;;6.65;3.22;;;8.50;99.90;;;;;;12459189;28;20061;-77
2024/04/02 05:17:31;;;;;;;6.65;2.83;;;8.50;99.90;;;;;;12470914;28;20056;-81
2024/04/02 05:23:32;;;;;;;7.30;3.00;;;8.40;99.90;;;;;;12477799;28;20068;-79
2024/04/02 05:29:33;;;;;;;5.43;3.05;;;8.50;99.90;;;;;;12475457;28;20516;-80
2024/04/02 05:35:34;;;;;;;8.38;3.33;;;8.50;99.90;;;;;;12471792;28;20062;-78
2024/04/02 05:41:35;;;;;;;5.28;3.20;;;8.50;99.90;;;;;;12482230;28;20042;-78
2024/04/02 05:47:36;;;;;;;8.27;4.10;;;8.50;99.90;;;;;;12472742;28;20062;-78
2024/04/02 05:53:37;;;;;;;5.85;3.90;;;8.50;99.90;;;;;;12486257;28;20105;-78
2024/04/02 05:59:38;;;;;;;7.15;4.32;;;8.50;99.90;;;;;;12466208;28;20125;-78
2024/04/02 06:05:39;;;;;;;6.47;3.45;;;9.00;99.90;;;;;;12493681;28;20337;-80
2024/04/02 06:11:40;;;;;;;6.10;4.03;;;8.90;99.90;;;;;;12502744;28;20055;-80
2024/04/02 06:17:41;;;;;;;7.68;4.40;;;8.80;99.90;;;;;;12477618;28;20042;-80
2024/04/02 06:23:44;;;;;;;7.40;4.22;;;8.80;99.90;;;;;;12469342;28;20058;-82
2024/04/02 06:29:45;;;;;;;7.07;4.30;;;8.80;99.90;;;;;;12437949;28;20054;-84
2024/04/02 06:35:46;;;;;;;7.68;4.60;;;8.80;99.90;;;;;;12435171;28;20137;-83
2024/04/02 06:41:47;;;;;;;8.65;5.35;;;8.90;99.90;;;;;;12425170;28;20061;-80
2024/04/02 06:47:51;;;;;;;10.02;5.05;;;8.90;99.90;;;;;;12422971;28;20054;-81
2024/04/02 06:53:53;;;;;;;11.68;5.70;;;9.10;99.90;;;;;;12356869;28;20414;-80
2024/04/02 06:59:53;;;;;;;7.97;7.10;;;9.20;99.90;;;;;;12372777;28;20057;-81
2024/04/02 07:05:54;;;;;;;9.80;7.05;;;9.30;99.90;;;;;;12372277;28;20092;-84
2024/04/02 07:11:55;;;;;;;8.10;7.20;;;9.40;99.90;;;;;;12360163;28;20042;-83
2024/04/02 07:17:56;;;;;;;8.63;6.72;;;9.50;99.90;;;;;;12377723;28;20064;-85
2024/04/02 07:23:57;;;;;;;9.77;8.10;;;9.50;99.90;;;;;;12358607;28;20062;-84
2024/04/02 07:29:58;;;;;;;9.60;7.10;;;9.30;99.90;;;;;;12371503;28;20054;-82
2024/04/02 07:36:01;;;;;;;10.90;6.80;;;9.40;99.90;;;;;;12381283;28;20076;-77
2024/04/02 07:42:02;;;;;;;8.68;7.10;;;9.50;99.90;;;;;;12401064;28;20054;-81
2024/04/02 07:48:03;;;;;;;8.52;7.22;;;9.60;99.90;;;;;;12425749;28;20387;-79
2024/04/02 07:54:04;;;;;;;11.27;7.38;;;9.70;99.90;;;;;;12468682;28;20042;-78
2024/04/02 08:00:06;;;;;;;11.70;8.25;;;9.80;99.90;;;;;;12464366;28;20042;-78
2024/04/02 08:06:07;;;;;;;10.30;9.30;;;9.70;99.90;;;;;;12471192;28;20054;-81
2024/04/02 08:12:08;;;;;;;10.85;9.40;;;9.80;99.90;;;;;;12466974;28;20045;-79
2024/04/02 08:18:09;;;;;;;9.93;8.57;;;9.90;99.90;;;;;;12457576;28;20120;-79
2024/04/02 08:24:09;;;;;;;12.60;8.85;;;10.40;99.90;;;;;;12478539;28;20056;-80
2024/04/02 08:30:12;;;;;;;12.52;8.32;;;10.40;99.90;;;;;;12469185;28;20081;-78
2024/04/02 08:36:13;;;;;;;11.95;8.30;;;10.40;99.90;;;;;;12453123;28;20045;-80
2024/04/02 08:42:14;;;;;;;11.55;8.40;;;10.40;99.90;;;;;;12431332;28;20147;-79
2024/04/02 08:48:16;;;;;;;10.35;9.05;;;10.20;99.90;;;;;;12447544;28;20485;-80
2024/04/02 08:54:17;;;;;;;13.25;9.40;;;10.20;99.90;;;;;;12465236;28;20056;-79
2024/04/02 09:00:20;;;;;;;10.80;9.70;;;10.30;99.90;;;;;;12472684;28;20050;-80
2024/04/02 09:06:21;;;;;;;11.77;9.77;;;10.20;99.90;;;;;;12480936;28;20049;-80
2024/04/02 09:12:22;;;;;;;11.68;10.50;;;10.10;99.90;;;;;;12468676;28;20050;-80
2024/04/02 09:18:23;;;;;;;14.25;10.95;;;10.10;99.90;;;;;;12450293;28;20054;-79
2024/04/02 09:24:25;;;;;;;13.52;10.68;;;10.20;99.90;;;;;;12471271;28;20053;-82
2024/04/02 09:30:26;;;;;;;12.18;10.90;;;10.30;99.90;;;;;;12463190;28;20048;-80
2024/04/02 09:36:43;;;;;;;14.75;10.88;;;10.30;99.90;;;;;;12474437;28;20041;-82
2024/04/02 09:42:49;;;;;;;10.75;8.07;;;10.60;99.90;;;;;;12491622;28;20088;-80
2024/04/02 09:48:52;;;;;;;9.48;7.63;;;10.80;99.90;;;;;;12446070;28;20116;-82
2024/04/02 09:54:54;;;;;;;12.18;8.38;;;11.40;99.90;;;;;;12426734;28;20049;-81
2024/04/02 10:00:57;;;;;;;12.23;10.23;;;11.20;99.90;;;;;;12439216;28;20534;-84
2024/04/02 10:07:00;;;;;;;16.02;11.13;;;11.10;99.90;;;;;;12423803;28;20070;-83
2024/04/02 10:13:06;;;;;;;11.68;9.00;;;11.10;99.90;;;;;;12437244;28;20041;-87
2024/04/02 10:19:28;;;;;;;10.80;7.85;;;11.00;99.90;;;;;;12442274;28;20053;-84
2024/04/02 10:25:31;;;;;;;10.65;6.80;;;11.10;99.90;;;;;;12442669;28;20436;-82
2024/04/02 10:31:40;;;;;;;8.40;6.55;;;11.30;99.90;;;;;;12442838;28;20058;-84
2024/04/02 10:37:41;;;;;;;10.02;6.13;;;11.10;99.90;;;;;;12439818;28;20046;-85
2024/04/02 10:43:45;;;;;;;10.13;6.38;;;11.60;99.90;;;;;;12442924;28;20046;-81
2024/04/02 10:49:47;;;;;;;11.40;6.53;;;11.90;99.90;;;;;;12446749;28;20057;-81
2024/04/02 10:55:49;;;;;;;8.23;5.72;;;11.70;99.90;;;;;;12428169;28;20045;-85
2024/04/02 11:01:53;;;;;;;10.27;5.18;;;11.30;99.90;;;;;;12477346;28;20046;-80
2024/04/02 11:07:56;;;;;;;;;;;11.60;99.90;;;;;;12450661;28;20061;-80
2024/04/02 11:14:06;;;;;;;9.55;4.20;;;11.70;99.90;;;;;;12451523;28;19921;-80
2024/04/02 11:20:11;;;;;;;8.35;3.42;;;11.80;99.90;;;;;;12450497;28;20026;-79
2024/04/02 11:26:18;;;;;;;10.48;5.10;;;11.60;99.90;;;;;;12435777;28;20054;-81
2024/04/02 11:32:23;;;;;;;6.13;2.85;;;11.70;99.90;;;;;;12443216;28;20033;-80
2024/04/02 11:38:23;;;;;;;6.60;3.20;;;11.90;99.90;;;;;;12466278;28;20060;-79
2024/04/02 11:44:25;;;;;;;8.82;4.15;;;11.90;99.90;;;;;;12441708;28;20067;-81
2024/04/02 11:50:26;;;;;;;9.75;5.10;;;12.00;99.90;;;;;;12454715;28;20057;-78
2024/04/02 12:00:01;;;;;;;10.20;4.22;;;11.90;99.90;;;;;;12462561;28;20046;-80
2024/04/02 12:02:48;;;;;;;10.68;3.85;;;12.00;99.90;;;;;;12471951;28;20056;-78
2024/04/02 12:08:49;;;;;;;6.60;4.03;;;11.80;99.90;;;;;;12495649;28;20084;-84
2024/04/02 12:14:51;;;;;;;5.65;4.30;;;11.90;99.90;;;;;;12474397;28;20568;-83
2024/04/02 12:20:52;;;;;;;4.53;3.42;;;11.70;99.90;;;;;;12453688;28;20069;-85
2024/04/02 12:26:52;;;;;;;6.63;3.53;;;11.80;99.90;;;;;;12437709;28;20130;-84
2024/04/02 12:32:53;;;;;;;6.05;3.35;;;11.80;99.90;;;;;;12424285;28;20101;-84
2024/04/02 12:38:54;;;;;;;4.40;3.55;;;11.80;99.90;;;;;;12438856;28;20196;-86
2024/04/02 12:44:55;;;;;;;12.57;4.10;;;11.80;99.90;;;;;;12418369;28;20510;-85
2024/04/02 12:50:56;;;;;;;8.32;3.85;;;11.80;99.90;;;;;;12421575;28;20066;-85
2024/04/02 12:57:00;;;;;;;7.10;3.55;;;11.90;99.90;;;;;;12423690;28;20092;-85
2024/04/02 13:03:02;;;;;;;7.93;3.53;;;11.90;99.90;;;;;;12460922;28;20585;-87
2024/04/02 13:09:06;;;;;;;8.93;3.00;;;11.90;99.90;;;;;;12430221;28;20050;-85
2024/04/02 13:15:07;;;;;;;;;;;12.00;99.90;;;;;;12438330;28;20418;-85
2024/04/02 13:21:08;;;;;;;6.68;3.58;;;12.00;99.90;;;;;;12545477;22;19920;-36
2024/04/02 13:27:09;;;;;;;6.55;3.40;;;11.80;99.90;;;;;;12602042;28;20052;-36
2024/04/02 13:33:10;;;;;;;6.65;3.15;;;11.70;99.90;;;;;;12606897;28;20043;-35
2024/04/02 13:39:11;;;;;;;6.07;3.40;;;11.90;99.90;;;;;;12585683;28;20048;-35
2024/04/02 13:45:12;;;;;;;8.98;2.50;;;12.00;99.90;;;;;;12602836;28;20048;-36
2024/04/02 13:51:17;;;;;;;5.78;3.15;;;12.00;99.90;;;;;;12605798;28;20075;-36
2024/04/02 13:57:18;;;;;;;6.72;2.83;;;12.00;99.90;;;;;;12604431;28;20503;-36
2024/04/02 14:03:19;;;;;;;5.72;2.83;;;11.80;99.90;;;;;;12611355;28;20052;-36
2024/04/02 14:09:19;;;;;;;7.15;3.20;;;11.80;99.90;;;;;;12618208;28;20055;-36
2024/04/02 14:15:20;;;;;;;5.97;3.50;;;11.60;99.90;;;;;;12614988;28;20048;-35
2024/04/02 14:21:22;;;;;;;6.80;2.92;;;11.30;99.90;;;;;;12609485;28;20082;-35
2024/04/02 14:27:22;;;;;;;5.78;2.33;;;11.20;99.90;;;;;;12602732;28;20048;-35
2024/04/02 14:33:23;;;;;;;5.15;2.30;;;11.40;99.90;;;;;;12615831;28;20438;-36
2024/04/02 14:39:24;;;;;;;4.10;2.20;;;11.40;99.90;;;;;;12614950;28;20040;-36
2024/04/02 14:45:25;;;;;;;4.72;2.38;;;11.80;99.90;;;;;;12610727;28;20060;-36
2024/04/02 14:51:26;;;;;;;3.92;2.40;;;12.00;99.90;;;;;;12616287;28;20055;-35
2024/04/02 14:57:27;;;;;;;3.03;2.25;;;11.90;99.90;;;;;;12602162;28;20496;-35
2024/04/02 15:03:28;;;;;;;3.03;2.50;;;11.80;99.90;;;;;;12612597;28;20158;-35
2024/04/02 15:09:29;;;;;;;3.70;1.83;;;11.60;99.90;;;;;;12604039;28;20057;-35
2024/04/02 15:15:30;;;;;;;4.65;1.75;;;11.50;99.90;;;;;;12612293;28;20048;-35
2024/04/02 15:21:31;;;;;;;2.50;1.80;;;11.90;99.90;;;;;;12628712;28;20048;-37
2024/04/02 15:27:32;;;;;;;3.13;2.10;;;12.10;99.90;;;;;;12613955;28;20500;-35
2024/04/02 15:33:32;;;;;;;3.17;2.13;;;12.20;99.90;;;;;;12594578;28;20049;-35
2024/04/02 15:39:33;;;;;;;4.03;1.98;;;11.80;99.90;;;;;;12613873;28;20492;-35
2024/04/02 15:45:34;;;;;;;2.05;1.80;;;11.70;99.90;;;;;;12609516;28;20036;-35
2024/04/02 15:51:35;;;;;;;3.65;1.98;;;11.60;99.90;;;;;;12604221;28;20113;-35
2024/04/02 15:57:36;;;;;;;3.30;2.10;;;11.40;99.90;;;;;;12606328;28;20558;-35
2024/04/02 16:03:37;;;;;;;3.05;2.22;;;11.40;99.90;;;;;;12605332;28;20484;-35
2024/04/02 16:09:38;;;;;;;4.13;2.33;;;11.20;99.90;;;;;;12626039;28;20048;-35
2024/04/02 16:15:39;;;;;;;6.43;3.38;;;11.20;99.90;;;;;;12606278;28;20055;-36
2024/04/02 16:21:44;;;;;;;3.70;2.33;;;11.00;99.90;;;;;;12607742;28;20399;-36
2024/04/02 16:27:48;;;;;;;3.33;2.33;;;10.60;99.90;;;;;;12601775;28;20051;-35
2024/04/02 16:33:49;;;;;;;4.03;2.50;;;10.50;99.90;;;;;;12590428;28;20051;-35
2024/04/02 16:39:49;;;;;;;3.65;2.50;;;10.50;99.90;;;;;;12615014;28;20066;-35
2024/04/02 16:45:50;;;;;;;5.32;2.58;;;10.60;99.90;;;;;;12611753;28;20087;-35
2024/04/02 16:51:51;;;;;;;3.85;2.42;;;10.70;99.90;;;;;;12599830;28;20056;-35
2024/04/02 16:57:53;;;;;;;5.43;3.38;;;10.90;99.90;;;;;;12588593;28;20145;-35
2024/04/02 17:03:54;;;;;;;5.57;3.22;;;10.70;99.90;;;;;;12608238;28;20063;-35
2024/04/02 17:09:55;;;;;;;5.28;3.40;;;10.40;99.90;;;;;;12606002;28;20055;-35
2024/04/02 17:15:59;;;;;;;4.88;3.20;;;10.20;99.90;;;;;;12598428;28;20056;-35
2024/04/02 17:22:01;;;;;;;7.50;3.78;;;10.00;99.90;;;;;;12590879;28;20113;-35
2024/04/02 17:28:02;;;;;;;7.18;4.53;;;10.10;99.90;;;;;;12601106;28;20055;-35
2024/04/02 17:34:02;;;;;;;7.93;4.25;;;10.20;99.90;;;;;;12604642;28;20051;-35
2024/04/02 17:40:04;;;;;;;8.50;4.68;;;10.10;99.90;;;;;;12612744;28;20514;-35
2024/04/02 17:46:08;;;;;;;7.93;5.03;;;10.00;99.90;;;;;;12589342;28;20477;-35
2024/04/02 17:52:09;;;;;;;10.15;4.55;;;10.00;99.90;;;;;;12610860;28;20062;-36
2024/04/02 17:58:10;;;;;;;10.95;4.78;;;9.90;99.90;;;;;;12592495;28;20435;-35
2024/04/02 18:04:11;;;;;;;9.60;4.80;;;9.80;99.90;;;;;;12607483;28;20079;-35
2024/04/02 18:10:12;;;;;;;10.45;5.50;;;9.80;99.90;;;;;;12618865;28;20051;-35
2024/04/02 18:16:13;;;;;;;8.30;4.88;;;9.80;99.90;;;;;;12619849;28;20044;-35
2024/04/02 18:22:14;;;;;;;10.98;5.20;;;9.80;99.90;;;;;;12614666;28;20064;-35
2024/04/02 18:28:15;;;;;;;8.15;5.30;;;9.70;99.90;;;;;;12597742;28;20490;-35
2024/04/02 18:34:17;;;;;;;8.00;4.38;;;9.60;99.90;;;;;;12622390;28;20473;-35
2024/04/02 18:40:18;;;;;;;7.95;4.65;;;9.50;99.90;;;;;;12610330;28;20048;-35
2024/04/02 18:46:23;;;;;;;9.23;4.93;;;9.70;99.90;;;;;;12590769;28;20080;-35
2024/04/02 18:52:24;;;;;;;8.73;5.30;;;9.60;99.90;;;;;;12617147;28;20063;-35
2024/04/02 18:58:25;;;;;;;8.00;5.65;;;9.60;99.90;;;;;;12604490;28;20101;-35
2024/04/02 19:04:26;;;;;;;9.15;5.45;;;9.60;99.90;;;;;;12597034;28;20056;-35
2024/04/02 19:10:26;;;;;;;9.70;5.10;;;9.60;99.90;;;;;;12614964;28;20472;-35
2024/04/02 19:16:27;;;;;;;7.88;5.35;;;9.70;99.90;;;;;;12618603;28;20040;-35
2024/04/02 19:22:28;;;;;;;8.82;4.93;;;9.70;99.90;;;;;;12617259;28;20138;-35
2024/04/02 19:28:34;;;;;;;9.70;5.22;;;9.70;99.90;;;;;;12615822;28;20419;-36
2024/04/02 19:34:34;;;;;;;7.97;4.80;;;9.80;99.90;;;;;;12608729;28;20048;-35
2024/04/02 19:40:35;;;;;;;9.82;5.97;;;9.80;99.90;;;;;;12612743;28;20067;-35
2024/04/02 19:46:37;;;;;;;11.65;5.97;;;9.70;99.90;;;;;;12617906;28;20060;-35
2024/04/02 19:52:38;;;;;;;10.50;5.97;;;9.70;99.90;;;;;;12594175;28;20060;-35
2024/04/02 19:58:39;;;;;;;13.63;5.90;;;9.70;99.90;;;;;;12610980;28;20040;-35
2024/04/02 20:04:43;;;;;;;11.32;6.10;;;9.70;99.90;;;;;;12614716;28;20048;-36
2024/04/02 20:10:43;;;;;;;9.50;6.15;;;9.70;99.90;;;;;;12616419;28;20101;-36
2024/04/02 20:16:44;;;;;;;9.77;4.90;;;9.60;99.90;;;;;;12614199;28;20124;-35
2024/04/02 20:22:45;;;;;;;8.02;4.93;;;9.70;99.90;;;;;;12621273;28;20055;-35
2024/04/02 20:28:46;;;;;;;9.45;5.22;;;9.70;99.90;;;;;;12616949;28;20087;-36
2024/04/02 20:34:47;;;;;;;9.50;4.90;;;9.60;99.90;;;;;;12625845;28;20440;-35
2024/04/02 20:40:48;;;;;;;10.73;5.15;;;9.40;99.90;;;;;;12618345;28;20052;-35
2024/04/02 20:46:49;;;;;;;12.05;5.28;;;9.40;99.90;;;;;;12588432;28;20090;-35
2024/04/02 20:52:50;;;;;;;10.07;5.78;;;9.50;99.90;;;;;;12613014;28;20514;-35
2024/04/02 20:58:51;;;;;;;8.68;6.20;;;9.40;99.90;;;;;;12610254;28;20097;-35
2024/04/02 21:04:52;;;;;;;10.85;6.05;;;9.30;99.90;;;;;;12594288;28;20474;-35
2024/04/02 21:10:57;;;;;;;8.40;5.88;;;9.20;99.90;;;;;;12615354;28;20056;-35
2024/04/02 21:16:58;;;;;;;9.13;6.13;;;9.20;99.90;;;;;;12598238;28;20078;-35
2024/04/02 21:22:59;;;;;;;11.65;5.78;;;9.30;99.90;;;;;;12617967;28;20098;-35
2024/04/02 21:29:00;;;;;;;9.60;6.03;;;9.40;99.90;;;;;;12615286;28;20468;-35
2024/04/02 21:35:01;;;;;;;10.07;5.57;;;9.40;99.90;;;;;;12604458;28;20044;-36
2024/04/02 21:41:03;;;;;;;10.90;4.90;;;9.40;99.90;;;;;;12615083;28;20049;-36
2024/04/02 21:47:05;;;;;;;8.43;5.20;;;9.40;99.90;;;;;;12582892;28;20059;-35
2024/04/02 21:53:06;;;;;;;9.45;5.18;;;9.50;99.90;;;;;;12603771;28;20056;-36
2024/04/02 21:59:07;;;;;;;8.13;5.10;;;9.40;99.90;;;;;;12576176;28;20052;-35
2024/04/02 22:05:09;;;;;;;11.02;5.10;;;9.30;99.90;;;;;;12605879;28;20064;-35
2024/04/02 22:11:10;;;;;;;6.82;4.97;;;9.20;99.90;;;;;;12624695;28;20515;-35
2024/04/02 22:17:10;;;;;;;9.38;5.75;;;9.10;99.90;;;;;;12613705;28;20052;-35
2024/04/02 22:23:13;;;;;;;12.98;5.93;;;9.00;99.90;;;;;;12614521;28;20103;-35
2024/04/02 22:29:14;;;;;;;12.07;6.53;;;9.00;99.90;;;;;;12623654;28;20141;-35
2024/04/02 22:35:15;;;;;;;13.95;6.75;;;8.90;99.90;;;;;;12607979;28;20048;-35
2024/04/02 22:41:16;;;;;;;12.52;7.07;;;8.90;99.90;;;;;;12608458;28;20040;-35
2024/04/02 22:47:17;;;;;;;12.57;6.97;;;8.90;99.90;;;;;;12614048;28;20056;-35
2024/04/02 22:53:18;;;;;;;13.15;6.93;;;8.90;99.90;;;;;;12616679;28;20514;-34
2024/04/02 22:59:18;;;;;;;12.90;7.38;;;8.90;99.90;;;;;;12608185;28;20087;-35
2024/04/02 23:05:19;;;;;;;13.65;7.65;;;8.80;99.90;;;;;;12607372;28;20058;-35
2024/04/02 23:11:20;;;;;;;14.95;8.60;;;8.70;99.90;;;;;;12603990;28;20404;-35
2024/04/02 23:17:21;;;;;;;16.45;8.63;;;8.70;99.90;;;;;;12624539;28;20044;-36
2024/04/02 23:23:22;;;;;;;15.55;8.85;;;8.70;99.90;;;;;;12617352;28;20423;-35
2024/04/02 23:29:23;;;;;;;15.90;9.45;;;8.70;99.90;;;;;;12607264;28;20063;-35
2024/04/02 23:35:24;;;;;;;17.42;9.18;;;8.80;99.90;;;;;;12613746;28;20480;-36
2024/04/02 23:41:24;;;;;;;15.65;8.50;;;8.70;99.90;;;;;;12616826;28;20053;-36
2024/04/02 23:47:25;;;;;;;15.07;8.43;;;8.60;99.90;;;;;;12590135;28;20127;-35
2024/04/02 23:53:26;;;;;;;16.92;7.72;;;8.50;99.90;;;;;;12612811;28;20454;-35
2024/04/02 23:59:27;;;;;;;15.85;7.20;;;8.50;99.90;;;;;;12617894;28;20139;-35
